KOXC/OXC METAR and TAF weather

Enter ICAO airport designator
Station Type Date Time Source
KOXC METAR 2021/09/27 05:51 UTC NOAA

KOXC 270551Z AUTO 22003KT 10SM CLR 11/08 A2998 RMK AO2 SLP161 T01060083 10150 20100 53006


Station Type Date Time Source
KOXC Decoded METAR 2021/09/27 05:51 UTC NOAA

Oxford, Waterbury-Oxford Airport, CT, United States (KOXC) 41-29N 073-08W
Sep 27, 2021 - 01:51 AM EDT / 2021.09.27 0551 UTC
Wind: from the SW (220 degrees) at 3 MPH (3 KT):0
Visibility: 10 mile(s):0
Sky conditions: clear
Temperature: 51.1 F (10.6 C)
Dew Point: 46.9 F (8.3 C)
Relative Humidity: 85%
Pressure (altimeter): 29.98 in. Hg (1015 hPa)
Pressure tendency: 0.02 inches (0.6 hPa) higher than three hours ago
ob: KOXC 270551Z AUTO 22003KT 10SM CLR 11/08 A2998 RMK AO2 SLP161 T01060083 10150 20100 53006
cycle: 6

Station Type Date Time Source
KOXC TAF UTC NOAA

Error!

Example: see airport list